sensor_id;sensor_type;location;lat;lon;timestamp;pressure;altitude;pressure_sealevel;temperature;humidity
7109;BME280;29079;41.930;25.558;2022-08-19T00:02:24;99067.38;;;24.71;49.10
7109;BME280;29079;41.930;25.558;2022-08-19T00:04:54;99061.22;;;24.63;49.03
7109;BME280;29079;41.930;25.558;2022-08-19T00:07:25;99072.59;;;24.72;49.04
7109;BME280;29079;41.930;25.558;2022-08-19T00:09:56;99075.56;;;24.71;49.23
7109;BME280;29079;41.930;25.558;2022-08-19T00:12:26;99067.00;;;24.67;49.43
7109;BME280;29079;41.930;25.558;2022-08-19T00:14:57;99070.47;;;24.62;49.65
7109;BME280;29079;41.930;25.558;2022-08-19T00:17:27;99068.56;;;24.75;49.30
7109;BME280;29079;41.930;25.558;2022-08-19T00:19:57;99071.50;;;24.85;49.30
7109;BME280;29079;41.930;25.558;2022-08-19T00:22:29;99072.69;;;24.77;49.44
7109;BME280;29079;41.930;25.558;2022-08-19T00:25:00;99078.28;;;24.59;50.19
7109;BME280;29079;41.930;25.558;2022-08-19T00:27:31;99071.75;;;24.60;50.45
7109;BME280;29079;41.930;25.558;2022-08-19T00:30:02;99071.75;;;24.60;50.52
7109;BME280;29079;41.930;25.558;2022-08-19T00:32:33;99074.34;;;24.55;50.95
7109;BME280;29079;41.930;25.558;2022-08-19T00:35:04;99067.25;;;24.54;51.02
7109;BME280;29079;41.930;25.558;2022-08-19T00:37:36;99066.66;;;24.51;51.30
7109;BME280;29079;41.930;25.558;2022-08-19T00:40:07;99068.53;;;24.51;51.43
7109;BME280;29079;41.930;25.558;2022-08-19T00:42:37;99072.34;;;24.50;51.75
7109;BME280;29079;41.930;25.558;2022-08-19T00:45:11;99067.00;;;24.55;51.70
7109;BME280;29079;41.930;25.558;2022-08-19T00:47:43;99061.47;;;24.62;52.03
7109;BME280;29079;41.930;25.558;2022-08-19T00:50:17;99073.41;;;24.73;52.07
7109;BME280;29079;41.930;25.558;2022-08-19T00:52:50;99067.81;;;24.79;52.83
7109;BME280;29079;41.930;25.558;2022-08-19T00:55:22;99069.81;;;24.84;52.93
7109;BME280;29079;41.930;25.558;2022-08-19T00:57:56;99059.63;;;24.79;52.98
7109;BME280;29079;41.930;25.558;2022-08-19T01:00:29;99074.47;;;24.72;53.54
7109;BME280;29079;41.930;25.558;2022-08-19T01:02:59;99067.25;;;24.65;53.55
7109;BME280;29079;41.930;25.558;2022-08-19T01:05:29;99069.16;;;24.65;53.86
7109;BME280;29079;41.930;25.558;2022-08-19T01:08:03;99059.53;;;24.50;53.98
7109;BME280;29079;41.930;25.558;2022-08-19T01:10:41;99069.03;;;24.60;53.98
7109;BME280;29079;41.930;25.558;2022-08-19T01:13:13;99057.50;;;24.58;53.89
7109;BME280;29079;41.930;25.558;2022-08-19T01:15:46;99073.75;;;24.64;53.87
7109;BME280;29079;41.930;25.558;2022-08-19T01:18:19;99067.81;;;24.56;53.94
7109;BME280;29079;41.930;25.558;2022-08-19T01:20:50;99068.19;;;24.47;54.14
7109;BME280;29079;41.930;25.558;2022-08-19T01:23:22;99078.41;;;24.28;54.69
7109;BME280;29079;41.930;25.558;2022-08-19T01:26:13;99067.72;;;24.39;54.43
7109;BME280;29079;41.930;25.558;2022-08-19T01:28:46;99073.19;;;24.27;54.67
7109;BME280;29079;41.930;25.558;2022-08-19T01:31:21;99073.06;;;24.22;54.55
7109;BME280;29079;41.930;25.558;2022-08-19T01:33:56;99078.41;;;24.28;54.51
7109;BME280;29079;41.930;25.558;2022-08-19T01:36:30;99068.09;;;24.19;54.43
7109;BME280;29079;41.930;25.558;2022-08-19T01:39:06;99078.75;;;24.08;54.91
7109;BME280;29079;41.930;25.558;2022-08-19T01:41:37;99071.16;;;24.10;54.96
7109;BME280;29079;41.930;25.558;2022-08-19T01:44:09;99075.31;;;24.13;54.63
7109;BME280;29079;41.930;25.558;2022-08-19T01:46:47;99073.78;;;24.05;54.78
7109;BME280;29079;41.930;25.558;2022-08-19T01:49:20;99078.28;;;23.99;54.85
7109;BME280;29079;41.930;25.558;2022-08-19T01:51:51;99072.81;;;23.99;54.60
7109;BME280;29079;41.930;25.558;2022-08-19T01:54:23;99078.03;;;24.01;54.67
7109;BME280;29079;41.930;25.558;2022-08-19T01:56:57;99072.91;;;23.93;54.92
7109;BME280;29079;41.930;25.558;2022-08-19T01:59:29;99075.78;;;23.98;54.79
7109;BME280;29079;41.930;25.558;2022-08-19T02:02:00;99070.69;;;24.02;54.51
7109;BME280;29079;41.930;25.558;2022-08-19T02:04:30;99069.63;;;24.03;54.47
7109;BME280;29079;41.930;25.558;2022-08-19T02:07:00;99075.16;;;23.96;54.61
7109;BME280;29079;41.930;25.558;2022-08-19T02:09:32;99077.97;;;23.77;55.24
7109;BME280;29079;41.930;25.558;2022-08-19T02:12:03;99078.88;;;23.71;55.45
7109;BME280;29079;41.930;25.558;2022-08-19T02:14:33;99091.91;;;23.69;55.46
7109;BME280;29079;41.930;25.558;2022-08-19T02:17:04;99081.97;;;23.63;55.73
7109;BME280;29079;41.930;25.558;2022-08-19T02:19:34;99087.53;;;23.68;55.46
7109;BME280;29079;41.930;25.558;2022-08-19T02:22:08;99094.50;;;23.64;55.72
7109;BME280;29079;41.930;25.558;2022-08-19T02:24:39;99091.69;;;23.71;55.65
7109;BME280;29079;41.930;25.558;2022-08-19T02:27:10;99100.78;;;23.64;55.91
7109;BME280;29079;41.930;25.558;2022-08-19T02:29:40;99095.16;;;23.47;56.09
7109;BME280;29079;41.930;25.558;2022-08-19T02:32:10;99103.19;;;23.42;56.22
7109;BME280;29079;41.930;25.558;2022-08-19T02:34:41;99058.72;;;23.18;56.41
7109;BME280;29079;41.930;25.558;2022-08-19T02:37:11;99099.88;;;23.40;56.53
7109;BME280;29079;41.930;25.558;2022-08-19T02:40:05;99103.53;;;23.34;56.78
7109;BME280;29079;41.930;25.558;2022-08-19T02:42:40;99092.94;;;23.26;56.81
7109;BME280;29079;41.930;25.558;2022-08-19T02:45:12;99096.28;;;23.28;56.65
7109;BME280;29079;41.930;25.558;2022-08-19T02:47:42;99116.84;;;23.24;57.16
7109;BME280;29079;41.930;25.558;2022-08-19T02:50:12;99116.84;;;23.24;57.42
7109;BME280;29079;41.930;25.558;2022-08-19T02:52:43;99119.56;;;23.24;57.19
7109;BME280;29079;41.930;25.558;2022-08-19T02:55:15;99121.97;;;23.32;57.18
7109;BME280;29079;41.930;25.558;2022-08-19T02:57:45;99120.56;;;23.29;57.30
7109;BME280;29079;41.930;25.558;2022-08-19T03:00:16;99132.09;;;23.25;57.16
7109;BME280;29079;41.930;25.558;2022-08-19T03:02:46;99129.38;;;23.25;57.32
7109;BME280;29079;41.930;25.558;2022-08-19T03:05:18;99140.66;;;23.28;57.52
7109;BME280;29079;41.930;25.558;2022-08-19T03:08:08;99111.47;;;23.17;57.32
7109;BME280;29079;41.930;25.558;2022-08-19T03:10:44;99136.25;;;23.27;57.23
7109;BME280;29079;41.930;25.558;2022-08-19T03:13:17;99136.22;;;23.16;57.61
7109;BME280;29079;41.930;25.558;2022-08-19T03:15:48;99117.75;;;23.18;57.37
7109;BME280;29079;41.930;25.558;2022-08-19T03:18:18;99129.47;;;23.18;57.70
7109;BME280;29079;41.930;25.558;2022-08-19T03:20:52;99139.69;;;23.23;57.67
7109;BME280;29079;41.930;25.558;2022-08-19T03:23:23;99139.00;;;23.27;57.61
7109;BME280;29079;41.930;25.558;2022-08-19T03:25:54;99093.72;;;22.96;57.72
7109;BME280;29079;41.930;25.558;2022-08-19T03:28:45;99148.59;;;23.30;57.91
7109;BME280;29079;41.930;25.558;2022-08-19T03:31:21;99135.88;;;23.05;58.26
7109;BME280;29079;41.930;25.558;2022-08-19T03:34:14;99148.75;;;23.17;58.47
7109;BME280;29079;41.930;25.558;2022-08-19T03:36:46;99147.97;;;23.09;58.56
7109;BME280;29079;41.930;25.558;2022-08-19T03:39:17;99155.09;;;23.10;58.76
7109;BME280;29079;41.930;25.558;2022-08-19T03:41:49;99148.38;;;23.13;58.77
7109;BME280;29079;41.930;25.558;2022-08-19T03:44:39;99165.84;;;23.24;58.32
7109;BME280;29079;41.930;25.558;2022-08-19T03:47:10;99161.28;;;23.36;57.93
7109;BME280;29079;41.930;25.558;2022-08-19T03:49:44;99158.50;;;23.43;58.01
7109;BME280;29079;41.930;25.558;2022-08-19T03:52:14;99166.88;;;23.41;58.14
7109;BME280;29079;41.930;25.558;2022-08-19T03:54:44;99166.38;;;23.33;58.68
7109;BME280;29079;41.930;25.558;2022-08-19T03:57:16;99149.06;;;23.27;58.78
7109;BME280;29079;41.930;25.558;2022-08-19T03:59:46;99166.50;;;23.19;59.36
7109;BME280;29079;41.930;25.558;2022-08-19T04:02:15;99155.16;;;23.04;59.40
7109;BME280;29079;41.930;25.558;2022-08-19T04:04:46;99163.06;;;23.12;59.10
7109;BME280;29079;41.930;25.558;2022-08-19T04:07:16;99167.94;;;23.22;58.71
7109;BME280;29079;41.930;25.558;2022-08-19T04:09:46;99169.47;;;23.18;58.94
7109;BME280;29079;41.930;25.558;2022-08-19T04:12:18;99179.28;;;23.19;58.92
7109;BME280;29079;41.930;25.558;2022-08-19T04:14:49;99179.41;;;23.05;59.42
7109;BME280;29079;41.930;25.558;2022-08-19T04:17:19;99181.84;;;22.95;59.67
7109;BME280;29079;41.930;25.558;2022-08-19T04:19:49;99182.34;;;22.85;59.82
7109;BME280;29079;41.930;25.558;2022-08-19T04:22:19;99188.94;;;22.96;59.76
7109;BME280;29079;41.930;25.558;2022-08-19T04:24:49;99178.25;;;22.94;59.80
7109;BME280;29079;41.930;25.558;2022-08-19T04:27:21;99184.47;;;23.02;59.43
7109;BME280;29079;41.930;25.558;2022-08-19T04:29:51;99187.28;;;22.95;59.80
7109;BME280;29079;41.930;25.558;2022-08-19T04:32:21;99187.88;;;22.97;59.61
7109;BME280;29079;41.930;25.558;2022-08-19T04:34:51;99183.50;;;22.96;59.68
7109;BME280;29079;41.930;25.558;2022-08-19T04:37:31;99181.16;;;23.00;59.44
7109;BME280;29079;41.930;25.558;2022-08-19T04:40:05;99181.09;;;23.06;59.31
7109;BME280;29079;41.930;25.558;2022-08-19T04:42:54;99183.81;;;23.06;59.24
7109;BME280;29079;41.930;25.558;2022-08-19T04:45:24;99178.16;;;23.08;59.29
7109;BME280;29079;41.930;25.558;2022-08-19T04:47:55;99182.94;;;23.12;59.47
7109;BME280;29079;41.930;25.558;2022-08-19T04:50:45;99182.84;;;23.19;59.41
7109;BME280;29079;41.930;25.558;2022-08-19T04:53:16;99186.88;;;23.17;59.44
7109;BME280;29079;41.930;25.558;2022-08-19T04:55:46;99185.72;;;23.24;59.25
7109;BME280;29079;41.930;25.558;2022-08-19T04:58:17;99182.00;;;23.19;59.75
7109;BME280;29079;41.930;25.558;2022-08-19T05:00:48;99186.13;;;23.28;59.34
7109;BME280;29079;41.930;25.558;2022-08-19T05:03:18;99183.69;;;23.38;59.21
7109;BME280;29079;41.930;25.558;2022-08-19T05:05:48;99183.97;;;23.49;59.06
7109;BME280;29079;41.930;25.558;2022-08-19T05:08:20;99177.88;;;23.65;58.69
7109;BME280;29079;41.930;25.558;2022-08-19T05:10:59;99189.44;;;23.79;58.56
7109;BME280;29079;41.930;25.558;2022-08-19T05:13:31;99181.91;;;23.93;58.18
7109;BME280;29079;41.930;25.558;2022-08-19T05:16:03;99188.47;;;24.04;58.36
7109;BME280;29079;41.930;25.558;2022-08-19T05:18:33;99184.00;;;24.09;58.61
7109;BME280;29079;41.930;25.558;2022-08-19T05:21:33;99185.69;;;24.34;57.92
7109;BME280;29079;41.930;25.558;2022-08-19T05:24:22;99192.47;;;24.43;57.92
7109;BME280;29079;41.930;25.558;2022-08-19T05:26:54;99194.94;;;24.57;57.71
7109;BME280;29079;41.930;25.558;2022-08-19T05:29:28;99183.34;;;24.73;57.50
7109;BME280;29079;41.930;25.558;2022-08-19T05:32:04;99181.69;;;24.84;57.47
7109;BME280;29079;41.930;25.558;2022-08-19T05:34:37;99191.19;;;24.93;57.48
7109;BME280;29079;41.930;25.558;2022-08-19T05:37:08;99181.69;;;24.96;57.70
7109;BME280;29079;41.930;25.558;2022-08-19T05:39:38;99181.19;;;25.11;57.28
7109;BME280;29079;41.930;25.558;2022-08-19T05:42:11;99160.78;;;25.13;57.10
7109;BME280;29079;41.930;25.558;2022-08-19T05:44:43;99175.91;;;25.45;56.38
7109;BME280;29079;41.930;25.558;2022-08-19T05:47:13;99180.91;;;25.48;56.71
7109;BME280;29079;41.930;25.558;2022-08-19T05:49:45;99186.88;;;25.62;56.10
7109;BME280;29079;41.930;25.558;2022-08-19T05:52:15;99188.66;;;25.68;55.76
7109;BME280;29079;41.930;25.558;2022-08-19T05:54:46;99191.00;;;25.76;55.50
7109;BME280;29079;41.930;25.558;2022-08-19T05:57:19;99191.44;;;25.85;55.38
7109;BME280;29079;41.930;25.558;2022-08-19T05:59:52;99197.56;;;25.92;55.30
7109;BME280;29079;41.930;25.558;2022-08-19T06:02:26;99197.06;;;25.95;54.80
7109;BME280;29079;41.930;25.558;2022-08-19T06:04:58;99195.91;;;26.03;54.80
7109;BME280;29079;41.930;25.558;2022-08-19T06:07:30;99204.59;;;26.17;54.77
7109;BME280;29079;41.930;25.558;2022-08-19T06:10:00;99194.50;;;26.17;54.69
7109;BME280;29079;41.930;25.558;2022-08-19T06:12:31;99197.16;;;26.29;54.30
7109;BME280;29079;41.930;25.558;2022-08-19T06:15:08;99203.31;;;26.36;53.55
7109;BME280;29079;41.930;25.558;2022-08-19T06:17:38;99202.72;;;26.34;53.52
7109;BME280;29079;41.930;25.558;2022-08-19T06:20:12;99202.91;;;26.45;53.37
7109;BME280;29079;41.930;25.558;2022-08-19T06:22:44;99209.09;;;26.57;53.45
7109;BME280;29079;41.930;25.558;2022-08-19T06:25:15;99209.19;;;26.62;52.50
7109;BME280;29079;41.930;25.558;2022-08-19T06:27:46;99211.28;;;26.72;52.79
7109;BME280;29079;41.930;25.558;2022-08-19T06:30:37;99204.31;;;26.81;52.63
7109;BME280;29079;41.930;25.558;2022-08-19T06:33:07;99217.75;;;26.83;52.55
7109;BME280;29079;41.930;25.558;2022-08-19T06:35:39;99212.06;;;26.89;51.79
7109;BME280;29079;41.930;25.558;2022-08-19T06:38:09;99209.84;;;26.86;52.30
7109;BME280;29079;41.930;25.558;2022-08-19T06:40:39;99215.81;;;27.00;51.76
7109;BME280;29079;41.930;25.558;2022-08-19T06:43:12;99215.44;;;27.14;51.75
7109;BME280;29079;41.930;25.558;2022-08-19T06:45:47;99217.75;;;27.22;51.42
7109;BME280;29079;41.930;25.558;2022-08-19T06:48:21;99219.72;;;27.26;50.88
7109;BME280;29079;41.930;25.558;2022-08-19T06:50:53;99215.97;;;27.33;51.39
7109;BME280;29079;41.930;25.558;2022-08-19T06:53:23;99202.53;;;27.31;50.76
7109;BME280;29079;41.930;25.558;2022-08-19T06:55:53;99216.19;;;27.48;50.65
7109;BME280;29079;41.930;25.558;2022-08-19T06:58:31;99220.09;;;27.52;50.52
7109;BME280;29079;41.930;25.558;2022-08-19T07:01:03;99212.81;;;27.63;50.08
7109;BME280;29079;41.930;25.558;2022-08-19T07:03:37;99213.94;;;27.67;49.39
7109;BME280;29079;41.930;25.558;2022-08-19T07:06:11;99216.69;;;27.67;49.68
7109;BME280;29079;41.930;25.558;2022-08-19T07:09:05;99161.06;;;27.44;49.00
7109;BME280;29079;41.930;25.558;2022-08-19T07:11:36;99216.81;;;27.77;49.36
7109;BME280;29079;41.930;25.558;2022-08-19T07:14:06;99222.13;;;27.89;48.89
7109;BME280;29079;41.930;25.558;2022-08-19T07:16:49;99213.13;;;27.94;49.06
7109;BME280;29079;41.930;25.558;2022-08-19T07:19:22;99173.50;;;27.79;48.98
7109;BME280;29079;41.930;25.558;2022-08-19T07:21:53;99192.03;;;27.94;48.74
7109;BME280;29079;41.930;25.558;2022-08-19T07:24:25;99203.16;;;28.10;48.54
7109;BME280;29079;41.930;25.558;2022-08-19T07:27:03;99203.75;;;28.12;48.60
7109;BME280;29079;41.930;25.558;2022-08-19T07:29:43;99200.25;;;28.22;48.09
7109;BME280;29079;41.930;25.558;2022-08-19T07:32:24;99202.59;;;28.35;47.62
7109;BME280;29079;41.930;25.558;2022-08-19T07:34:55;99201.78;;;28.40;47.48
7109;BME280;29079;41.930;25.558;2022-08-19T07:37:25;99196.56;;;28.38;47.50
7109;BME280;29079;41.930;25.558;2022-08-19T07:40:01;99204.31;;;28.46;47.73
7109;BME280;29079;41.930;25.558;2022-08-19T07:42:31;99200.56;;;28.58;47.28
7109;BME280;29079;41.930;25.558;2022-08-19T07:45:01;99203.13;;;28.64;45.98
7109;BME280;29079;41.930;25.558;2022-08-19T07:47:33;99206.16;;;28.68;46.08
7109;BME280;29079;41.930;25.558;2022-08-19T07:50:19;99193.28;;;28.74;46.37
7109;BME280;29079;41.930;25.558;2022-08-19T07:52:50;99196.59;;;28.76;46.49
7109;BME280;29079;41.930;25.558;2022-08-19T07:55:22;99203.44;;;28.73;46.64
7109;BME280;29079;41.930;25.558;2022-08-19T07:58:12;99198.31;;;28.87;45.46
7109;BME280;29079;41.930;25.558;2022-08-19T08:00:44;99201.66;;;28.94;45.12
7109;BME280;29079;41.930;25.558;2022-08-19T08:03:18;99194.31;;;29.05;45.12
7109;BME280;29079;41.930;25.558;2022-08-19T08:05:48;99208.31;;;29.09;45.38
7109;BME280;29079;41.930;25.558;2022-08-19T08:08:36;99196.25;;;29.10;45.48
7109;BME280;29079;41.930;25.558;2022-08-19T08:11:28;99196.50;;;29.08;45.38
7109;BME280;29079;41.930;25.558;2022-08-19T08:13:59;99200.41;;;29.17;44.85
7109;BME280;29079;41.930;25.558;2022-08-19T08:16:34;99195.78;;;29.23;44.85
7109;BME280;29079;41.930;25.558;2022-08-19T08:19:15;99195.06;;;29.38;44.28
7109;BME280;29079;41.930;25.558;2022-08-19T08:21:54;99190.69;;;29.47;44.63
7109;BME280;29079;41.930;25.558;2022-08-19T08:24:26;99192.34;;;29.53;43.99
7109;BME280;29079;41.930;25.558;2022-08-19T08:26:58;99190.16;;;29.61;43.68
7109;BME280;29079;41.930;25.558;2022-08-19T08:29:30;99193.75;;;29.66;43.24
7109;BME280;29079;41.930;25.558;2022-08-19T08:32:03;99185.00;;;29.75;43.08
7109;BME280;29079;41.930;25.558;2022-08-19T08:34:43;99181.97;;;29.76;42.81
7109;BME280;29079;41.930;25.558;2022-08-19T08:37:20;99181.19;;;29.86;43.02
7109;BME280;29079;41.930;25.558;2022-08-19T08:39:50;99187.50;;;29.86;42.71
7109;BME280;29079;41.930;25.558;2022-08-19T08:42:24;99177.34;;;29.87;42.81
7109;BME280;29079;41.930;25.558;2022-08-19T08:44:58;99176.53;;;29.97;41.71
7109;BME280;29079;41.930;25.558;2022-08-19T08:47:33;99168.28;;;30.02;42.01
7109;BME280;29079;41.930;25.558;2022-08-19T08:50:10;99176.53;;;30.07;41.59
7109;BME280;29079;41.930;25.558;2022-08-19T08:52:45;99178.72;;;30.00;42.18
7109;BME280;29079;41.930;25.558;2022-08-19T08:55:17;99180.06;;;29.82;43.38
7109;BME280;29079;41.930;25.558;2022-08-19T08:57:52;99174.56;;;29.82;42.98
7109;BME280;29079;41.930;25.558;2022-08-19T09:00:26;99172.38;;;29.94;40.84
7109;BME280;29079;41.930;25.558;2022-08-19T09:02:58;99170.75;;;29.98;41.52
7109;BME280;29079;41.930;25.558;2022-08-19T09:05:36;99167.44;;;30.01;42.14
7109;BME280;29079;41.930;25.558;2022-08-19T09:08:23;99169.66;;;29.99;42.08
7109;BME280;29079;41.930;25.558;2022-08-19T09:10:56;99161.94;;;30.01;41.45
7109;BME280;29079;41.930;25.558;2022-08-19T09:13:33;99166.34;;;29.97;42.17
7109;BME280;29079;41.930;25.558;2022-08-19T09:16:10;99158.13;;;30.13;41.48
7109;BME280;29079;41.930;25.558;2022-08-19T09:18:43;99152.06;;;30.21;40.92
7109;BME280;29079;41.930;25.558;2022-08-19T09:21:15;99145.44;;;30.22;40.80
7109;BME280;29079;41.930;25.558;2022-08-19T09:23:49;99146.00;;;30.34;41.10
7109;BME280;29079;41.930;25.558;2022-08-19T09:26:21;99154.00;;;30.26;41.23
7109;BME280;29079;41.930;25.558;2022-08-19T09:29:12;99155.38;;;30.28;41.09
7109;BME280;29079;41.930;25.558;2022-08-19T09:31:42;99153.16;;;30.41;40.68
7109;BME280;29079;41.930;25.558;2022-08-19T09:34:12;99149.88;;;30.49;40.08
7109;BME280;29079;41.930;25.558;2022-08-19T09:36:50;99146.81;;;30.66;38.31
7109;BME280;29079;41.930;25.558;2022-08-19T09:39:22;99143.19;;;30.76;38.06
7109;BME280;29079;41.930;25.558;2022-08-19T09:42:03;99146.78;;;30.81;38.08
7109;BME280;29079;41.930;25.558;2022-08-19T09:44:47;99151.16;;;30.87;38.20
7109;BME280;29079;41.930;25.558;2022-08-19T09:47:17;99142.88;;;30.87;36.27
7109;BME280;29079;41.930;25.558;2022-08-19T09:49:50;99144.81;;;30.92;37.71
7109;BME280;29079;41.930;25.558;2022-08-19T09:52:21;99135.22;;;30.79;37.19
7109;BME280;29079;41.930;25.558;2022-08-19T09:54:52;99127.00;;;30.59;38.65
7109;BME280;29079;41.930;25.558;2022-08-19T09:57:22;99136.91;;;30.65;38.28
7109;BME280;29079;41.930;25.558;2022-08-19T09:59:52;99136.31;;;30.73;37.24
7109;BME280;29079;41.930;25.558;2022-08-19T10:02:22;99115.69;;;30.65;38.38
7109;BME280;29079;41.930;25.558;2022-08-19T10:04:56;99140.13;;;30.93;37.28
7109;BME280;29079;41.930;25.558;2022-08-19T10:07:51;99130.50;;;30.95;37.65
7109;BME280;29079;41.930;25.558;2022-08-19T10:10:24;99122.75;;;30.97;37.04
7109;BME280;29079;41.930;25.558;2022-08-19T10:12:54;99124.13;;;30.95;37.45
7109;BME280;29079;41.930;25.558;2022-08-19T10:15:25;99118.38;;;30.91;37.78
7109;BME280;29079;41.930;25.558;2022-08-19T10:17:56;99125.50;;;31.13;35.96
7109;BME280;29079;41.930;25.558;2022-08-19T10:20:29;99123.31;;;31.04;36.80
7109;BME280;29079;41.930;25.558;2022-08-19T10:23:00;99129.66;;;30.95;37.63
7109;BME280;29079;41.930;25.558;2022-08-19T10:25:33;99123.31;;;31.04;37.04
7109;BME280;29079;41.930;25.558;2022-08-19T10:28:05;99108.16;;;31.02;37.04
7109;BME280;29079;41.930;25.558;2022-08-19T10:30:39;99120.97;;;31.32;36.75
7109;BME280;29079;41.930;25.558;2022-08-19T10:33:09;99119.41;;;31.11;37.11
7109;BME280;29079;41.930;25.558;2022-08-19T10:35:39;99119.06;;;31.28;36.70
7109;BME280;29079;41.930;25.558;2022-08-19T10:38:26;99112.00;;;31.06;37.13
7109;BME280;29079;41.930;25.558;2022-08-19T10:41:07;99111.44;;;31.09;37.09
7109;BME280;29079;41.930;25.558;2022-08-19T10:43:37;99108.56;;;31.40;35.88
7109;BME280;29079;41.930;25.558;2022-08-19T10:46:11;99069.59;;;31.02;36.54
7109;BME280;29079;41.930;25.558;2022-08-19T10:48:44;99102.19;;;31.45;35.27
7109;BME280;29079;41.930;25.558;2022-08-19T10:51:15;99105.97;;;31.59;35.87
7109;BME280;29079;41.930;25.558;2022-08-19T10:54:04;99107.06;;;31.53;35.71
7109;BME280;29079;41.930;25.558;2022-08-19T10:56:40;99096.56;;;31.60;35.74
7109;BME280;29079;41.930;25.558;2022-08-19T10:59:23;99095.47;;;31.61;34.62
7109;BME280;29079;41.930;25.558;2022-08-19T11:02:03;99091.09;;;31.50;36.25
7109;BME280;29079;41.930;25.558;2022-08-19T11:04:33;99080.91;;;31.50;35.58
7109;BME280;29079;41.930;25.558;2022-08-19T11:07:04;99080.03;;;31.60;35.49
7109;BME280;29079;41.930;25.558;2022-08-19T11:09:40;99059.91;;;31.54;34.67
7109;BME280;29079;41.930;25.558;2022-08-19T11:12:10;99081.41;;;31.63;35.39
7109;BME280;29079;41.930;25.558;2022-08-19T11:14:42;99077.88;;;31.52;36.29
7109;BME280;29079;41.930;25.558;2022-08-19T11:17:12;99078.72;;;31.47;35.94
7109;BME280;29079;41.930;25.558;2022-08-19T11:19:43;99084.25;;;31.47;35.15
7109;BME280;29079;41.930;25.558;2022-08-19T11:22:14;99076.97;;;31.67;34.10
7109;BME280;29079;41.930;25.558;2022-08-19T11:24:48;99062.94;;;31.63;34.99
7109;BME280;29079;41.930;25.558;2022-08-19T11:27:18;99064.06;;;31.91;33.77
7109;BME280;29079;41.930;25.558;2022-08-19T11:29:48;99056.88;;;31.96;34.54
7109;BME280;29079;41.930;25.558;2022-08-19T11:32:18;99059.75;;;32.09;33.59
7109;BME280;29079;41.930;25.558;2022-08-19T11:34:48;99055.19;;;32.00;34.04
7109;BME280;29079;41.930;25.558;2022-08-19T11:37:18;99054.81;;;31.77;35.10
7109;BME280;29079;41.930;25.558;2022-08-19T11:39:49;99046.44;;;31.87;33.76
7109;BME280;29079;41.930;25.558;2022-08-19T11:42:21;99045.72;;;31.76;34.66
7109;BME280;29079;41.930;25.558;2022-08-19T11:45:09;99044.88;;;31.76;34.54
7109;BME280;29079;41.930;25.558;2022-08-19T11:47:39;99045.88;;;31.90;33.84
7109;BME280;29079;41.930;25.558;2022-08-19T11:50:09;99045.44;;;32.07;34.01
7109;BME280;29079;41.930;25.558;2022-08-19T11:52:41;99036.88;;;31.80;35.19
7109;BME280;29079;41.930;25.558;2022-08-19T11:55:15;99036.19;;;31.64;36.26
7109;BME280;29079;41.930;25.558;2022-08-19T11:57:45;99031.94;;;31.76;34.64
7109;BME280;29079;41.930;25.558;2022-08-19T12:00:15;99035.81;;;31.70;34.89
7109;BME280;29079;41.930;25.558;2022-08-19T12:02:46;99030.56;;;31.74;34.74
7109;BME280;29079;41.930;25.558;2022-08-19T12:05:16;99029.50;;;31.99;34.03
7109;BME280;29079;41.930;25.558;2022-08-19T12:07:46;99025.91;;;32.04;34.35
7109;BME280;29079;41.930;25.558;2022-08-19T12:10:18;99028.22;;;32.21;33.02
7109;BME280;29079;41.930;25.558;2022-08-19T12:12:54;99018.03;;;32.21;33.12
7109;BME280;29079;41.930;25.558;2022-08-19T12:15:27;99015.72;;;32.53;32.86
7109;BME280;29079;41.930;25.558;2022-08-19T12:18:05;99021.22;;;32.58;32.77
7109;BME280;29079;41.930;25.558;2022-08-19T12:20:36;99008.84;;;32.50;32.51
7109;BME280;29079;41.930;25.558;2022-08-19T12:23:08;99014.50;;;32.64;32.83
7109;BME280;29079;41.930;25.558;2022-08-19T12:25:44;99013.38;;;32.65;33.26
7109;BME280;29079;41.930;25.558;2022-08-19T12:28:17;99012.88;;;32.39;33.90
7109;BME280;29079;41.930;25.558;2022-08-19T12:30:48;99018.41;;;32.39;34.10
7109;BME280;29079;41.930;25.558;2022-08-19T12:33:19;99021.13;;;32.15;34.90
7109;BME280;29079;41.930;25.558;2022-08-19T12:35:52;99020.13;;;32.00;34.70
7109;BME280;29079;41.930;25.558;2022-08-19T12:38:23;99016.88;;;31.93;35.13
7109;BME280;29079;41.930;25.558;2022-08-19T12:40:54;99013.41;;;32.11;33.82
7109;BME280;29079;41.930;25.558;2022-08-19T12:43:27;99020.91;;;32.06;34.45
7109;BME280;29079;41.930;25.558;2022-08-19T12:45:58;99009.16;;;32.24;33.31
7109;BME280;29079;41.930;25.558;2022-08-19T12:48:28;99020.63;;;32.07;34.20
7109;BME280;29079;41.930;25.558;2022-08-19T12:51:06;99002.59;;;31.86;35.12
7109;BME280;29079;41.930;25.558;2022-08-19T12:53:36;99007.03;;;32.11;33.77
7109;BME280;29079;41.930;25.558;2022-08-19T12:56:10;99005.63;;;32.19;33.80
7109;BME280;29079;41.930;25.558;2022-08-19T12:58:42;98990.94;;;31.94;35.36
7109;BME280;29079;41.930;25.558;2022-08-19T13:01:18;98964.00;;;31.86;34.13
7109;BME280;29079;41.930;25.558;2022-08-19T13:03:50;98996.59;;;32.08;34.03
7109;BME280;29079;41.930;25.558;2022-08-19T13:06:21;98996.47;;;32.23;33.04
7109;BME280;29079;41.930;25.558;2022-08-19T13:08:51;98986.72;;;32.31;33.68
7109;BME280;29079;41.930;25.558;2022-08-19T13:11:28;98984.66;;;32.18;34.12
7109;BME280;29079;41.930;25.558;2022-08-19T13:14:02;98992.16;;;32.12;33.42
7109;BME280;29079;41.930;25.558;2022-08-19T13:16:33;98984.75;;;32.07;33.42
7109;BME280;29079;41.930;25.558;2022-08-19T13:19:04;98991.00;;;32.18;33.36
7109;BME280;29079;41.930;25.558;2022-08-19T13:21:34;98971.97;;;32.17;33.31
7109;BME280;29079;41.930;25.558;2022-08-19T13:24:05;98979.50;;;32.35;32.60
7109;BME280;29079;41.930;25.558;2022-08-19T13:26:36;98982.09;;;32.51;31.98
7109;BME280;29079;41.930;25.558;2022-08-19T13:29:06;98978.50;;;32.74;32.25
7109;BME280;29079;41.930;25.558;2022-08-19T13:31:53;98973.47;;;32.76;31.02
7109;BME280;29079;41.930;25.558;2022-08-19T13:34:46;98968.44;;;32.59;32.03